sensor_id;sensor_type;location;lat;lon;timestamp;P1;durP1;ratioP1;P2;durP2;ratioP2
3967;SDS011;9221;42.646;23.380;2022-08-19T00:00:04;6.20;;;3.70;;
3967;SDS011;9221;42.646;23.380;2022-08-19T00:02:32;6.80;;;3.50;;
3967;SDS011;9221;42.646;23.380;2022-08-19T00:04:58;7.53;;;4.13;;
3967;SDS011;9221;42.646;23.380;2022-08-19T00:07:23;5.73;;;3.77;;
3967;SDS011;9221;42.646;23.380;2022-08-19T00:09:49;8.27;;;4.20;;
3967;SDS011;9221;42.646;23.380;2022-08-19T00:12:14;7.07;;;4.23;;
3967;SDS011;9221;42.646;23.380;2022-08-19T00:14:40;7.00;;;4.03;;
3967;SDS011;9221;42.646;23.380;2022-08-19T00:17:07;7.70;;;3.83;;
3967;SDS011;9221;42.646;23.380;2022-08-19T00:19:33;9.57;;;4.20;;
3967;SDS011;9221;42.646;23.380;2022-08-19T00:21:59;7.10;;;4.30;;
3967;SDS011;9221;42.646;23.380;2022-08-19T00:24:25;7.73;;;4.23;;
3967;SDS011;9221;42.646;23.380;2022-08-19T00:26:53;5.90;;;3.57;;
3967;SDS011;9221;42.646;23.380;2022-08-19T00:29:20;7.80;;;3.80;;
3967;SDS011;9221;42.646;23.380;2022-08-19T00:31:46;8.57;;;4.10;;
3967;SDS011;9221;42.646;23.380;2022-08-19T00:34:13;9.23;;;3.80;;
3967;SDS011;9221;42.646;23.380;2022-08-19T00:36:42;11.50;;;4.03;;
3967;SDS011;9221;42.646;23.380;2022-08-19T00:39:08;5.73;;;3.53;;
3967;SDS011;9221;42.646;23.380;2022-08-19T00:41:34;6.93;;;3.70;;
3967;SDS011;9221;42.646;23.380;2022-08-19T00:44:22;9.73;;;3.70;;
3967;SDS011;9221;42.646;23.380;2022-08-19T00:46:52;16.20;;;4.03;;
3967;SDS011;9221;42.646;23.380;2022-08-19T00:49:41;9.40;;;4.47;;
3967;SDS011;9221;42.646;23.380;2022-08-19T00:52:07;13.87;;;4.53;;
3967;SDS011;9221;42.646;23.380;2022-08-19T00:54:41;10.00;;;4.53;;
3967;SDS011;9221;42.646;23.380;2022-08-19T00:57:09;8.87;;;4.50;;
3967;SDS011;9221;42.646;23.380;2022-08-19T00:59:40;8.57;;;4.03;;
3967;SDS011;9221;42.646;23.380;2022-08-19T01:02:10;9.23;;;4.40;;
3967;SDS011;9221;42.646;23.380;2022-08-19T01:04:37;7.50;;;4.30;;
3967;SDS011;9221;42.646;23.380;2022-08-19T01:07:02;5.83;;;3.90;;
3967;SDS011;9221;42.646;23.380;2022-08-19T01:09:28;14.00;;;4.13;;
3967;SDS011;9221;42.646;23.380;2022-08-19T01:11:54;9.60;;;4.10;;
3967;SDS011;9221;42.646;23.380;2022-08-19T01:14:21;8.17;;;3.87;;
3967;SDS011;9221;42.646;23.380;2022-08-19T01:16:46;8.27;;;4.53;;
3967;SDS011;9221;42.646;23.380;2022-08-19T01:19:21;7.40;;;3.70;;
3967;SDS011;9221;42.646;23.380;2022-08-19T01:21:55;8.47;;;4.30;;
3967;SDS011;9221;42.646;23.380;2022-08-19T01:24:26;5.80;;;3.40;;
3967;SDS011;9221;42.646;23.380;2022-08-19T01:26:51;7.83;;;4.23;;
3967;SDS011;9221;42.646;23.380;2022-08-19T01:29:18;13.63;;;4.50;;
3967;SDS011;9221;42.646;23.380;2022-08-19T01:31:43;8.40;;;4.10;;
3967;SDS011;9221;42.646;23.380;2022-08-19T01:34:08;13.30;;;4.70;;
3967;SDS011;9221;42.646;23.380;2022-08-19T01:36:44;10.27;;;4.13;;
3967;SDS011;9221;42.646;23.380;2022-08-19T01:39:13;6.70;;;4.10;;
3967;SDS011;9221;42.646;23.380;2022-08-19T01:41:42;6.80;;;3.93;;
3967;SDS011;9221;42.646;23.380;2022-08-19T01:44:08;5.77;;;4.00;;
3967;SDS011;9221;42.646;23.380;2022-08-19T01:46:34;13.33;;;4.33;;
3967;SDS011;9221;42.646;23.380;2022-08-19T01:49:01;8.33;;;4.50;;
3967;SDS011;9221;42.646;23.380;2022-08-19T01:51:27;7.77;;;4.37;;
3967;SDS011;9221;42.646;23.380;2022-08-19T01:53:52;7.73;;;4.33;;
3967;SDS011;9221;42.646;23.380;2022-08-19T01:56:19;11.33;;;4.37;;
3967;SDS011;9221;42.646;23.380;2022-08-19T01:58:47;7.80;;;4.53;;
3967;SDS011;9221;42.646;23.380;2022-08-19T02:01:17;8.07;;;4.90;;
3967;SDS011;9221;42.646;23.380;2022-08-19T02:03:43;11.47;;;4.37;;
3967;SDS011;9221;42.646;23.380;2022-08-19T02:06:08;6.77;;;4.00;;
3967;SDS011;9221;42.646;23.380;2022-08-19T02:08:34;6.30;;;4.30;;
3967;SDS011;9221;42.646;23.380;2022-08-19T02:11:02;8.20;;;4.13;;
3967;SDS011;9221;42.646;23.380;2022-08-19T02:13:28;6.13;;;4.30;;
3967;SDS011;9221;42.646;23.380;2022-08-19T02:15:54;7.77;;;3.90;;
3967;SDS011;9221;42.646;23.380;2022-08-19T02:18:19;7.77;;;4.13;;
3967;SDS011;9221;42.646;23.380;2022-08-19T02:20:45;10.33;;;4.73;;
3967;SDS011;9221;42.646;23.380;2022-08-19T02:23:12;8.10;;;4.03;;
3967;SDS011;9221;42.646;23.380;2022-08-19T02:25:40;9.00;;;4.70;;
3967;SDS011;9221;42.646;23.380;2022-08-19T02:28:06;8.10;;;4.33;;
3967;SDS011;9221;42.646;23.380;2022-08-19T02:30:32;10.93;;;4.40;;
3967;SDS011;9221;42.646;23.380;2022-08-19T02:32:58;14.77;;;4.73;;
3967;SDS011;9221;42.646;23.380;2022-08-19T02:35:23;16.43;;;4.60;;
3967;SDS011;9221;42.646;23.380;2022-08-19T02:37:48;7.87;;;4.43;;
3967;SDS011;9221;42.646;23.380;2022-08-19T02:40:33;7.90;;;4.20;;
3967;SDS011;9221;42.646;23.380;2022-08-19T02:43:00;10.87;;;4.00;;
3967;SDS011;9221;42.646;23.380;2022-08-19T02:45:30;6.97;;;4.67;;
3967;SDS011;9221;42.646;23.380;2022-08-19T02:47:57;8.50;;;5.07;;
3967;SDS011;9221;42.646;23.380;2022-08-19T02:50:23;6.73;;;3.97;;
3967;SDS011;9221;42.646;23.380;2022-08-19T02:52:48;8.90;;;4.63;;
3967;SDS011;9221;42.646;23.380;2022-08-19T02:55:13;7.40;;;4.30;;
3967;SDS011;9221;42.646;23.380;2022-08-19T02:57:39;8.50;;;4.37;;
3967;SDS011;9221;42.646;23.380;2022-08-19T03:00:06;6.50;;;3.70;;
3967;SDS011;9221;42.646;23.380;2022-08-19T03:02:34;7.03;;;4.03;;
3967;SDS011;9221;42.646;23.380;2022-08-19T03:05:00;6.47;;;4.30;;
3967;SDS011;9221;42.646;23.380;2022-08-19T03:07:27;6.00;;;4.00;;
3967;SDS011;9221;42.646;23.380;2022-08-19T03:09:52;10.97;;;4.20;;
3967;SDS011;9221;42.646;23.380;2022-08-19T03:12:18;6.87;;;4.57;;
3967;SDS011;9221;42.646;23.380;2022-08-19T03:14:43;12.63;;;6.57;;
3967;SDS011;9221;42.646;23.380;2022-08-19T03:17:09;11.07;;;4.37;;
3967;SDS011;9221;42.646;23.380;2022-08-19T03:19:34;7.20;;;4.67;;
3967;SDS011;9221;42.646;23.380;2022-08-19T03:22:00;6.30;;;3.90;;
3967;SDS011;9221;42.646;23.380;2022-08-19T03:24:25;15.77;;;4.87;;
3967;SDS011;9221;42.646;23.380;2022-08-19T03:26:52;7.57;;;4.13;;
3967;SDS011;9221;42.646;23.380;2022-08-19T03:29:23;12.40;;;5.10;;
3967;SDS011;9221;42.646;23.380;2022-08-19T03:31:53;12.97;;;4.50;;
3967;SDS011;9221;42.646;23.380;2022-08-19T03:34:21;9.63;;;4.90;;
3967;SDS011;9221;42.646;23.380;2022-08-19T03:36:51;13.70;;;4.73;;
3967;SDS011;9221;42.646;23.380;2022-08-19T03:39:19;9.93;;;4.53;;
3967;SDS011;9221;42.646;23.380;2022-08-19T03:41:45;7.93;;;4.53;;
3967;SDS011;9221;42.646;23.380;2022-08-19T03:44:16;11.60;;;4.87;;
3967;SDS011;9221;42.646;23.380;2022-08-19T03:46:45;6.20;;;3.97;;
3967;SDS011;9221;42.646;23.380;2022-08-19T03:49:12;16.33;;;4.57;;
3967;SDS011;9221;42.646;23.380;2022-08-19T03:51:38;10.93;;;4.83;;
3967;SDS011;9221;42.646;23.380;2022-08-19T03:54:05;7.30;;;4.30;;
3967;SDS011;9221;42.646;23.380;2022-08-19T03:56:33;6.90;;;4.70;;
3967;SDS011;9221;42.646;23.380;2022-08-19T03:59:01;15.97;;;5.03;;
3967;SDS011;9221;42.646;23.380;2022-08-19T04:01:28;9.83;;;4.80;;
3967;SDS011;9221;42.646;23.380;2022-08-19T04:03:57;8.43;;;4.57;;
3967;SDS011;9221;42.646;23.380;2022-08-19T04:06:27;11.07;;;5.17;;
3967;SDS011;9221;42.646;23.380;2022-08-19T04:08:56;11.70;;;4.90;;
3967;SDS011;9221;42.646;23.380;2022-08-19T04:11:27;9.37;;;4.90;;
3967;SDS011;9221;42.646;23.380;2022-08-19T04:13:55;11.77;;;4.33;;
3967;SDS011;9221;42.646;23.380;2022-08-19T04:16:22;9.33;;;4.10;;
3967;SDS011;9221;42.646;23.380;2022-08-19T04:18:49;19.37;;;5.63;;
3967;SDS011;9221;42.646;23.380;2022-08-19T04:21:18;10.90;;;4.33;;
3967;SDS011;9221;42.646;23.380;2022-08-19T04:23:47;10.43;;;4.40;;
3967;SDS011;9221;42.646;23.380;2022-08-19T04:26:24;13.70;;;4.87;;
3967;SDS011;9221;42.646;23.380;2022-08-19T04:28:51;7.43;;;4.07;;
3967;SDS011;9221;42.646;23.380;2022-08-19T04:31:18;9.67;;;4.73;;
3967;SDS011;9221;42.646;23.380;2022-08-19T04:33:45;9.17;;;4.67;;
3967;SDS011;9221;42.646;23.380;2022-08-19T04:36:18;8.60;;;3.93;;
3967;SDS011;9221;42.646;23.380;2022-08-19T04:38:49;6.40;;;4.07;;
3967;SDS011;9221;42.646;23.380;2022-08-19T04:41:17;10.57;;;5.17;;
3967;SDS011;9221;42.646;23.380;2022-08-19T04:44:01;11.43;;;5.50;;
3967;SDS011;9221;42.646;23.380;2022-08-19T04:46:27;8.87;;;4.67;;
3967;SDS011;9221;42.646;23.380;2022-08-19T04:48:55;12.37;;;5.00;;
3967;SDS011;9221;42.646;23.380;2022-08-19T04:51:21;7.53;;;4.57;;
3967;SDS011;9221;42.646;23.380;2022-08-19T04:53:48;10.90;;;4.90;;
3967;SDS011;9221;42.646;23.380;2022-08-19T04:56:14;11.53;;;5.00;;
3967;SDS011;9221;42.646;23.380;2022-08-19T04:58:43;13.33;;;5.27;;
3967;SDS011;9221;42.646;23.380;2022-08-19T05:01:23;10.43;;;5.57;;
3967;SDS011;9221;42.646;23.380;2022-08-19T05:03:51;13.23;;;5.37;;
3967;SDS011;9221;42.646;23.380;2022-08-19T05:06:18;8.70;;;5.30;;
3967;SDS011;9221;42.646;23.380;2022-08-19T05:08:45;10.67;;;5.20;;
3967;SDS011;9221;42.646;23.380;2022-08-19T05:11:15;8.13;;;4.53;;
3967;SDS011;9221;42.646;23.380;2022-08-19T05:13:47;11.30;;;5.90;;
3967;SDS011;9221;42.646;23.380;2022-08-19T05:16:14;9.70;;;5.27;;
3967;SDS011;9221;42.646;23.380;2022-08-19T05:18:41;7.33;;;4.40;;
3967;SDS011;9221;42.646;23.380;2022-08-19T05:21:25;19.37;;;5.47;;
3967;SDS011;9221;42.646;23.380;2022-08-19T05:24:11;16.00;;;5.73;;
3967;SDS011;9221;42.646;23.380;2022-08-19T05:26:38;10.27;;;5.23;;
3967;SDS011;9221;42.646;23.380;2022-08-19T05:29:06;10.87;;;4.97;;
3967;SDS011;9221;42.646;23.380;2022-08-19T05:31:33;9.80;;;5.93;;
3967;SDS011;9221;42.646;23.380;2022-08-19T05:33:59;15.07;;;6.07;;
3967;SDS011;9221;42.646;23.380;2022-08-19T05:36:27;12.53;;;5.10;;
3967;SDS011;9221;42.646;23.380;2022-08-19T05:38:57;11.77;;;5.60;;
3967;SDS011;9221;42.646;23.380;2022-08-19T05:41:23;8.50;;;5.13;;
3967;SDS011;9221;42.646;23.380;2022-08-19T05:43:55;17.50;;;5.70;;
3967;SDS011;9221;42.646;23.380;2022-08-19T05:46:21;20.43;;;5.53;;
3967;SDS011;9221;42.646;23.380;2022-08-19T05:48:47;11.63;;;5.50;;
3967;SDS011;9221;42.646;23.380;2022-08-19T05:51:13;10.03;;;5.30;;
3967;SDS011;9221;42.646;23.380;2022-08-19T05:53:40;13.20;;;5.60;;
3967;SDS011;9221;42.646;23.380;2022-08-19T05:56:06;14.60;;;5.37;;
3967;SDS011;9221;42.646;23.380;2022-08-19T05:58:33;13.03;;;4.87;;
3967;SDS011;9221;42.646;23.380;2022-08-19T06:00:59;13.80;;;6.03;;
3967;SDS011;9221;42.646;23.380;2022-08-19T06:03:30;15.23;;;6.60;;
3967;SDS011;9221;42.646;23.380;2022-08-19T06:05:56;15.10;;;5.63;;
3967;SDS011;9221;42.646;23.380;2022-08-19T06:08:24;10.60;;;6.00;;
3967;SDS011;9221;42.646;23.380;2022-08-19T06:10:50;23.17;;;6.60;;
3967;SDS011;9221;42.646;23.380;2022-08-19T06:13:15;12.33;;;5.93;;
3967;SDS011;9221;42.646;23.380;2022-08-19T06:15:40;9.53;;;5.30;;
3967;SDS011;9221;42.646;23.380;2022-08-19T06:18:09;8.07;;;4.90;;
3967;SDS011;9221;42.646;23.380;2022-08-19T06:20:34;10.20;;;5.63;;
3967;SDS011;9221;42.646;23.380;2022-08-19T06:22:59;7.20;;;4.70;;
3967;SDS011;9221;42.646;23.380;2022-08-19T06:25:25;7.10;;;4.43;;
3967;SDS011;9221;42.646;23.380;2022-08-19T06:27:50;7.70;;;4.60;;
3967;SDS011;9221;42.646;23.380;2022-08-19T06:30:16;10.13;;;4.10;;
3967;SDS011;9221;42.646;23.380;2022-08-19T06:32:41;9.60;;;4.87;;
3967;SDS011;9221;42.646;23.380;2022-08-19T06:35:07;11.53;;;4.97;;
3967;SDS011;9221;42.646;23.380;2022-08-19T06:37:33;13.43;;;4.80;;
3967;SDS011;9221;42.646;23.380;2022-08-19T06:39:58;7.37;;;4.60;;
3967;SDS011;9221;42.646;23.380;2022-08-19T06:42:24;12.53;;;5.30;;
3967;SDS011;9221;42.646;23.380;2022-08-19T06:44:49;13.53;;;4.90;;
3967;SDS011;9221;42.646;23.380;2022-08-19T06:47:17;9.60;;;4.37;;
3967;SDS011;9221;42.646;23.380;2022-08-19T06:49:43;7.80;;;4.97;;
3967;SDS011;9221;42.646;23.380;2022-08-19T06:52:09;15.63;;;5.47;;
3967;SDS011;9221;42.646;23.380;2022-08-19T06:54:39;10.80;;;4.87;;
3967;SDS011;9221;42.646;23.380;2022-08-19T06:57:06;19.70;;;6.70;;
3967;SDS011;9221;42.646;23.380;2022-08-19T06:59:34;9.50;;;4.80;;
3967;SDS011;9221;42.646;23.380;2022-08-19T07:02:00;10.07;;;5.13;;
3967;SDS011;9221;42.646;23.380;2022-08-19T07:04:31;11.07;;;4.53;;
3967;SDS011;9221;42.646;23.380;2022-08-19T07:07:05;12.37;;;5.27;;
3967;SDS011;9221;42.646;23.380;2022-08-19T07:09:39;23.67;;;6.03;;
3967;SDS011;9221;42.646;23.380;2022-08-19T07:12:06;13.50;;;4.83;;
3967;SDS011;9221;42.646;23.380;2022-08-19T07:14:34;10.93;;;4.93;;
3967;SDS011;9221;42.646;23.380;2022-08-19T07:17:02;10.67;;;4.60;;
3967;SDS011;9221;42.646;23.380;2022-08-19T07:19:28;7.60;;;4.60;;
3967;SDS011;9221;42.646;23.380;2022-08-19T07:21:54;19.07;;;5.10;;
3967;SDS011;9221;42.646;23.380;2022-08-19T07:24:22;13.60;;;4.80;;
3967;SDS011;9221;42.646;23.380;2022-08-19T07:26:49;14.70;;;5.57;;
3967;SDS011;9221;42.646;23.380;2022-08-19T07:29:17;13.33;;;5.10;;
3967;SDS011;9221;42.646;23.380;2022-08-19T07:31:43;14.27;;;4.60;;
3967;SDS011;9221;42.646;23.380;2022-08-19T07:34:09;12.63;;;5.20;;
3967;SDS011;9221;42.646;23.380;2022-08-19T07:36:38;7.67;;;4.87;;
3967;SDS011;9221;42.646;23.380;2022-08-19T07:39:09;9.87;;;4.80;;
3967;SDS011;9221;42.646;23.380;2022-08-19T07:41:46;13.13;;;4.70;;
3967;SDS011;9221;42.646;23.380;2022-08-19T07:44:13;10.90;;;5.10;;
3967;SDS011;9221;42.646;23.380;2022-08-19T07:46:41;13.70;;;4.67;;
3967;SDS011;9221;42.646;23.380;2022-08-19T07:49:09;11.03;;;4.70;;
3967;SDS011;9221;42.646;23.380;2022-08-19T07:51:42;19.17;;;4.97;;
3967;SDS011;9221;42.646;23.380;2022-08-19T07:54:08;13.23;;;4.50;;
3967;SDS011;9221;42.646;23.380;2022-08-19T07:56:33;16.03;;;4.47;;
3967;SDS011;9221;42.646;23.380;2022-08-19T07:58:59;7.30;;;4.13;;
3967;SDS011;9221;42.646;23.380;2022-08-19T08:01:25;6.33;;;4.50;;
3967;SDS011;9221;42.646;23.380;2022-08-19T08:03:53;11.40;;;5.10;;
3967;SDS011;9221;42.646;23.380;2022-08-19T08:06:39;12.50;;;4.80;;
3967;SDS011;9221;42.646;23.380;2022-08-19T08:09:27;10.13;;;4.77;;
3967;SDS011;9221;42.646;23.380;2022-08-19T08:11:58;10.77;;;4.10;;
3967;SDS011;9221;42.646;23.380;2022-08-19T08:14:30;14.20;;;4.77;;
3967;SDS011;9221;42.646;23.380;2022-08-19T08:17:02;12.37;;;4.50;;
3967;SDS011;9221;42.646;23.380;2022-08-19T08:19:30;8.53;;;4.90;;
3967;SDS011;9221;42.646;23.380;2022-08-19T08:21:56;7.07;;;4.53;;
3967;SDS011;9221;42.646;23.380;2022-08-19T08:24:24;12.40;;;4.57;;
3967;SDS011;9221;42.646;23.380;2022-08-19T08:26:51;10.50;;;4.30;;
3967;SDS011;9221;42.646;23.380;2022-08-19T08:29:16;13.50;;;5.27;;
3967;SDS011;9221;42.646;23.380;2022-08-19T08:31:42;18.30;;;4.50;;
3967;SDS011;9221;42.646;23.380;2022-08-19T08:34:09;8.00;;;4.20;;
3967;SDS011;9221;42.646;23.380;2022-08-19T08:36:39;13.63;;;4.50;;
3967;SDS011;9221;42.646;23.380;2022-08-19T08:39:10;8.90;;;4.37;;
3967;SDS011;9221;42.646;23.380;2022-08-19T08:41:44;9.83;;;4.20;;
3967;SDS011;9221;42.646;23.380;2022-08-19T08:47:02;7.40;;;3.83;;
3967;SDS011;9221;42.646;23.380;2022-08-19T08:49:41;7.77;;;3.90;;
3967;SDS011;9221;42.646;23.380;2022-08-19T08:52:18;13.90;;;3.90;;
3967;SDS011;9221;42.646;23.380;2022-08-19T08:54:48;10.83;;;3.77;;
3967;SDS011;9221;42.646;23.380;2022-08-19T08:57:23;12.20;;;5.03;;
3967;SDS011;9221;42.646;23.380;2022-08-19T08:59:58;13.02;;;4.00;;
3967;SDS011;9221;42.646;23.380;2022-08-19T09:02:29;8.10;;;3.40;;
3967;SDS011;9221;42.646;23.380;2022-08-19T09:04:54;7.90;;;4.00;;
3967;SDS011;9221;42.646;23.380;2022-08-19T09:12:48;6.53;;;3.22;;
3967;SDS011;9221;42.646;23.380;2022-08-19T09:15:17;8.23;;;3.08;;
3967;SDS011;9221;42.646;23.380;2022-08-19T09:17:47;5.28;;;2.80;;
3967;SDS011;9221;42.646;23.380;2022-08-19T09:20:14;4.55;;;2.75;;
3967;SDS011;9221;42.646;23.380;2022-08-19T09:22:43;9.50;;;3.58;;
3967;SDS011;9221;42.646;23.380;2022-08-19T09:25:10;8.40;;;3.17;;
3967;SDS011;9221;42.646;23.380;2022-08-19T09:27:38;10.23;;;3.28;;
3967;SDS011;9221;42.646;23.380;2022-08-19T09:30:05;8.80;;;3.50;;
3967;SDS011;9221;42.646;23.380;2022-08-19T09:32:32;10.77;;;3.38;;
3967;SDS011;9221;42.646;23.380;2022-08-19T09:34:58;9.35;;;2.78;;
3967;SDS011;9221;42.646;23.380;2022-08-19T09:37:25;5.13;;;3.10;;
3967;SDS011;9221;42.646;23.380;2022-08-19T09:39:51;5.13;;;3.33;;
3967;SDS011;9221;42.646;23.380;2022-08-19T09:42:17;4.65;;;3.17;;
3967;SDS011;9221;42.646;23.380;2022-08-19T09:44:43;10.43;;;3.25;;
3967;SDS011;9221;42.646;23.380;2022-08-19T09:47:10;6.28;;;2.92;;
3967;SDS011;9221;42.646;23.380;2022-08-19T09:49:37;4.35;;;2.83;;
3967;SDS011;9221;42.646;23.380;2022-08-19T09:52:04;5.68;;;3.20;;
3967;SDS011;9221;42.646;23.380;2022-08-19T09:54:30;6.68;;;2.70;;
3967;SDS011;9221;42.646;23.380;2022-08-19T09:56:57;5.80;;;2.50;;
3967;SDS011;9221;42.646;23.380;2022-08-19T09:59:25;4.13;;;2.78;;
3967;SDS011;9221;42.646;23.380;2022-08-19T10:01:51;5.25;;;2.47;;
3967;SDS011;9221;42.646;23.380;2022-08-19T10:04:17;5.63;;;2.67;;
3967;SDS011;9221;42.646;23.380;2022-08-19T10:06:44;7.00;;;2.97;;
3967;SDS011;9221;42.646;23.380;2022-08-19T10:09:13;3.40;;;2.20;;
3967;SDS011;9221;42.646;23.380;2022-08-19T10:11:40;5.30;;;3.05;;
3967;SDS011;9221;42.646;23.380;2022-08-19T10:14:07;8.07;;;3.00;;
3967;SDS011;9221;42.646;23.380;2022-08-19T10:16:33;4.20;;;3.10;;
3967;SDS011;9221;42.646;23.380;2022-08-19T10:19:01;6.28;;;2.67;;
3967;SDS011;9221;42.646;23.380;2022-08-19T10:21:29;4.82;;;2.80;;
3967;SDS011;9221;42.646;23.380;2022-08-19T10:23:57;7.43;;;2.92;;
3967;SDS011;9221;42.646;23.380;2022-08-19T10:26:27;3.58;;;2.53;;
3967;SDS011;9221;42.646;23.380;2022-08-19T10:28:55;4.85;;;3.00;;
3967;SDS011;9221;42.646;23.380;2022-08-19T10:31:26;5.20;;;2.75;;
3967;SDS011;9221;42.646;23.380;2022-08-19T10:33:54;4.80;;;3.03;;
3967;SDS011;9221;42.646;23.380;2022-08-19T10:36:33;4.57;;;2.53;;
3967;SDS011;9221;42.646;23.380;2022-08-19T10:39:02;5.18;;;2.50;;
3967;SDS011;9221;42.646;23.380;2022-08-19T10:41:31;6.43;;;3.47;;
3967;SDS011;9221;42.646;23.380;2022-08-19T10:43:59;5.25;;;2.60;;
3967;SDS011;9221;42.646;23.380;2022-08-19T10:46:27;6.85;;;3.17;;
3967;SDS011;9221;42.646;23.380;2022-08-19T10:48:54;14.65;;;2.70;;
3967;SDS011;9221;42.646;23.380;2022-08-19T10:51:20;9.43;;;2.92;;
3967;SDS011;9221;42.646;23.380;2022-08-19T10:54:05;5.72;;;2.88;;
3967;SDS011;9221;42.646;23.380;2022-08-19T10:56:30;4.93;;;2.42;;
3967;SDS011;9221;42.646;23.380;2022-08-19T10:59:15;8.68;;;2.80;;
3967;SDS011;9221;42.646;23.380;2022-08-19T11:01:43;5.97;;;3.20;;
3967;SDS011;9221;42.646;23.380;2022-08-19T11:04:10;7.53;;;3.00;;
3967;SDS011;9221;42.646;23.380;2022-08-19T11:06:41;8.15;;;3.17;;
3967;SDS011;9221;42.646;23.380;2022-08-19T11:09:08;4.63;;;3.08;;
3967;SDS011;9221;42.646;23.380;2022-08-19T11:11:34;7.82;;;2.85;;
3967;SDS011;9221;42.646;23.380;2022-08-19T11:14:06;6.45;;;2.65;;
3967;SDS011;9221;42.646;23.380;2022-08-19T11:16:39;4.88;;;2.83;;
3967;SDS011;9221;42.646;23.380;2022-08-19T11:19:06;7.18;;;2.65;;
3967;SDS011;9221;42.646;23.380;2022-08-19T11:21:37;11.13;;;2.80;;
3967;SDS011;9221;42.646;23.380;2022-08-19T11:24:11;6.63;;;2.67;;
3967;SDS011;9221;42.646;23.380;2022-08-19T11:26:40;4.90;;;2.85;;
3967;SDS011;9221;42.646;23.380;2022-08-19T11:29:07;5.65;;;2.88;;
3967;SDS011;9221;42.646;23.380;2022-08-19T11:31:36;4.47;;;2.63;;
3967;SDS011;9221;42.646;23.380;2022-08-19T11:34:04;8.93;;;3.20;;
3967;SDS011;9221;42.646;23.380;2022-08-19T11:36:32;8.57;;;3.00;;
3967;SDS011;9221;42.646;23.380;2022-08-19T11:38:59;6.47;;;3.15;;
3967;SDS011;9221;42.646;23.380;2022-08-19T11:41:25;7.43;;;3.28;;
3967;SDS011;9221;42.646;23.380;2022-08-19T11:43:51;8.25;;;3.25;;
3967;SDS011;9221;42.646;23.380;2022-08-19T11:46:21;5.72;;;2.90;;
3967;SDS011;9221;42.646;23.380;2022-08-19T11:48:47;5.90;;;2.95;;
3967;SDS011;9221;42.646;23.380;2022-08-19T11:51:16;7.65;;;3.42;;
3967;SDS011;9221;42.646;23.380;2022-08-19T11:53:44;5.22;;;2.88;;
3967;SDS011;9221;42.646;23.380;2022-08-19T11:56:10;5.38;;;2.33;;
3967;SDS011;9221;42.646;23.380;2022-08-19T11:58:37;6.53;;;3.10;;
3967;SDS011;9221;42.646;23.380;2022-08-19T12:01:06;6.28;;;3.22;;
3967;SDS011;9221;42.646;23.380;2022-08-19T12:03:41;5.95;;;2.90;;
3967;SDS011;9221;42.646;23.380;2022-08-19T12:06:09;6.63;;;2.83;;
3967;SDS011;9221;42.646;23.380;2022-08-19T12:08:40;6.53;;;2.90;;
3967;SDS011;9221;42.646;23.380;2022-08-19T12:11:06;4.72;;;3.00;;
3967;SDS011;9221;42.646;23.380;2022-08-19T12:13:35;9.65;;;3.30;;
3967;SDS011;9221;42.646;23.380;2022-08-19T12:16:06;6.65;;;2.53;;
3967;SDS011;9221;42.646;23.380;2022-08-19T12:18:36;6.05;;;2.95;;
3967;SDS011;9221;42.646;23.380;2022-08-19T12:21:01;8.15;;;2.97;;
3967;SDS011;9221;42.646;23.380;2022-08-19T12:23:28;5.05;;;2.63;;
3967;SDS011;9221;42.646;23.380;2022-08-19T12:25:54;12.27;;;3.47;;
3967;SDS011;9221;42.646;23.380;2022-08-19T12:28:20;4.43;;;2.70;;
3967;SDS011;9221;42.646;23.380;2022-08-19T12:30:47;7.22;;;4.00;;
3967;SDS011;9221;42.646;23.380;2022-08-19T12:33:13;6.63;;;3.15;;
3967;SDS011;9221;42.646;23.380;2022-08-19T12:35:40;5.82;;;3.20;;
3967;SDS011;9221;42.646;23.380;2022-08-19T12:38:07;5.47;;;3.28;;
3967;SDS011;9221;42.646;23.380;2022-08-19T12:40:33;4.93;;;3.20;;
3967;SDS011;9221;42.646;23.380;2022-08-19T12:42:58;5.03;;;2.92;;
3967;SDS011;9221;42.646;23.380;2022-08-19T12:45:24;4.95;;;3.08;;
3967;SDS011;9221;42.646;23.380;2022-08-19T12:47:49;6.10;;;3.30;;
3967;SDS011;9221;42.646;23.380;2022-08-19T12:50:16;5.13;;;2.90;;
3967;SDS011;9221;42.646;23.380;2022-08-19T12:52:42;4.93;;;3.20;;
3967;SDS011;9221;42.646;23.380;2022-08-19T12:55:08;7.50;;;3.15;;
3967;SDS011;9221;42.646;23.380;2022-08-19T12:57:33;12.02;;;3.20;;
3967;SDS011;9221;42.646;23.380;2022-08-19T13:00:01;6.63;;;3.08;;
3967;SDS011;9221;42.646;23.380;2022-08-19T13:02:28;7.22;;;3.42;;
3967;SDS011;9221;42.646;23.380;2022-08-19T13:04:54;6.10;;;3.03;;
3967;SDS011;9221;42.646;23.380;2022-08-19T13:07:19;5.00;;;3.63;;
3967;SDS011;9221;42.646;23.380;2022-08-19T13:09:44;6.60;;;3.30;;
3967;SDS011;9221;42.646;23.380;2022-08-19T13:12:10;6.78;;;2.92;;
3967;SDS011;9221;42.646;23.380;2022-08-19T13:14:38;9.80;;;3.00;;
3967;SDS011;9221;42.646;23.380;2022-08-19T13:17:05;7.32;;;3.28;;
3967;SDS011;9221;42.646;23.380;2022-08-19T13:19:31;8.10;;;3.42;;
3967;SDS011;9221;42.646;23.380;2022-08-19T13:21:57;5.78;;;3.13;;
3967;SDS011;9221;42.646;23.380;2022-08-19T13:24:23;4.93;;;3.30;;
3967;SDS011;9221;42.646;23.380;2022-08-19T13:26:49;5.95;;;3.25;;
3967;SDS011;9221;42.646;23.380;2022-08-19T13:29:14;4.38;;;3.33;;
3967;SDS011;9221;42.646;23.380;2022-08-19T13:31:58;6.75;;;3.50;;
3967;SDS011;9221;42.646;23.380;2022-08-19T13:34:42;5.35;;;2.92;;
3967;SDS011;9221;42.646;23.380;2022-08-19T13:37:08;5.47;;;3.08;;
3967;SDS011;9221;42.646;23.380;2022-08-19T13:39:34;5.90;;;3.15;;
3967;SDS011;9221;42.646;23.380;2022-08-19T13:42:00;6.80;;;2.92;;
3967;SDS011;9221;42.646;23.380;2022-08-19T13:44:27;6.88;;;3.22;;
3967;SDS011;9221;42.646;23.380;2022-08-19T13:47:00;6.75;;;3.75;;
3967;SDS011;9221;42.646;23.380;2022-08-19T13:49:30;5.80;;;3.42;;
3967;SDS011;9221;42.646;23.380;2022-08-19T13:51:56;7.95;;;3.80;;
3967;SDS011;9221;42.646;23.380;2022-08-19T13:54:22;4.97;;;3.50;;
3967;SDS011;9221;42.646;23.380;2022-08-19T13:56:47;8.70;;;3.58;;
3967;SDS011;9221;42.646;23.380;2022-08-19T13:59:12;8.32;;;3.63;;
3967;SDS011;9221;42.646;23.380;2022-08-19T14:01:38;5.68;;;3.40;;
3967;SDS011;9221;42.646;23.380;2022-08-19T14:04:04;7.43;;;3.50;;
3967;SDS011;9221;42.646;23.380;2022-08-19T14:06:30;7.68;;;3.47;;
3967;SDS011;9221;42.646;23.380;2022-08-19T14:08:56;7.53;;;3.30;;
3967;SDS011;9221;42.646;23.380;2022-08-19T14:11:22;4.43;;;3.35;;
3967;SDS011;9221;42.646;23.380;2022-08-19T14:13:48;8.27;;;3.00;;
3967;SDS011;9221;42.646;23.380;2022-08-19T14:16:16;8.77;;;2.85;;
3967;SDS011;9221;42.646;23.380;2022-08-19T14:18:41;6.72;;;3.88;;
3967;SDS011;9221;42.646;23.380;2022-08-19T14:21:08;13.00;;;3.78;;
3967;SDS011;9221;42.646;23.380;2022-08-19T14:23:42;18.02;;;4.40;;
3967;SDS011;9221;42.646;23.380;2022-08-19T14:26:08;6.10;;;3.63;;
3967;SDS011;9221;42.646;23.380;2022-08-19T14:28:36;5.30;;;3.53;;
3967;SDS011;9221;42.646;23.380;2022-08-19T14:31:02;5.57;;;3.60;;
3967;SDS011;9221;42.646;23.380;2022-08-19T14:33:28;4.95;;;3.33;;
3967;SDS011;9221;42.646;23.380;2022-08-19T14:35:53;6.07;;;3.58;;
3967;SDS011;9221;42.646;23.380;2022-08-19T14:38:19;5.78;;;3.95;;
3967;SDS011;9221;42.646;23.380;2022-08-19T14:40:45;6.75;;;3.35;;
3967;SDS011;9221;42.646;23.380;2022-08-19T14:43:10;9.15;;;3.38;;
3967;SDS011;9221;42.646;23.380;2022-08-19T14:45:37;9.52;;;3.50;;
3967;SDS011;9221;42.646;23.380;2022-08-19T14:48:04;11.48;;;4.10;;
3967;SDS011;9221;42.646;23.380;2022-08-19T14:50:30;8.52;;;3.90;;
3967;SDS011;9221;42.646;23.380;2022-08-19T14:53:08;8.65;;;3.45;;
3967;SDS011;9221;42.646;23.380;2022-08-19T14:55:34;6.88;;;3.50;;
3967;SDS011;9221;42.646;23.380;2022-08-19T14:58:01;5.32;;;3.20;;
3967;SDS011;9221;42.646;23.380;2022-08-19T15:00:27;10.77;;;4.18;;
3967;SDS011;9221;42.646;23.380;2022-08-19T15:02:52;8.05;;;3.63;;
3967;SDS011;9221;42.646;23.380;2022-08-19T15:05:19;10.32;;;3.85;;
3967;SDS011;9221;42.646;23.380;2022-08-19T15:07:45;12.02;;;3.53;;
3967;SDS011;9221;42.646;23.380;2022-08-19T15:10:11;4.93;;;3.05;;